createdAt,value
2023-04-16T00:00:03.498Z,99479.69
2023-04-16T00:00:15.458Z,99489.44
2023-04-16T00:00:28.303Z,99478.00
2023-04-16T00:00:40.259Z,99476.28
2023-04-16T00:00:52.145Z,99485.78
2023-04-16T00:01:04.514Z,99478.00
2023-04-16T00:01:16.577Z,99483.25
2023-04-16T00:01:28.502Z,99487.59
2023-04-16T00:01:40.716Z,99478.75
2023-04-16T00:01:52.762Z,99490.72
2023-04-16T00:02:04.941Z,99478.53
2023-04-16T00:02:17.207Z,99480.13
2023-04-16T00:02:29.568Z,99480.88
2023-04-16T00:02:41.896Z,99485.94
2023-04-16T00:02:54.093Z,99482.66
2023-04-16T00:03:06.277Z,99481.84
2023-04-16T00:03:18.545Z,99478.47
2023-04-16T00:03:30.820Z,99481.06
2023-04-16T00:03:43.166Z,99477.72
2023-04-16T00:03:55.826Z,99479.44
2023-04-16T00:04:08.191Z,99480.19
2023-04-16T00:04:20.191Z,99476.78
2023-04-16T00:04:32.275Z,99485.31
2023-04-16T00:04:44.519Z,99483.75
2023-04-16T00:04:56.466Z,99478.56
2023-04-16T00:05:08.820Z,99484.63
2023-04-16T00:05:20.933Z,99481.22
2023-04-16T00:05:32.876Z,99480.31
2023-04-16T00:05:44.852Z,99479.44
2023-04-16T00:05:56.896Z,99481.22
2023-04-16T00:06:10.818Z,99480.34
2023-04-16T00:06:23.226Z,99485.13
2023-04-16T00:06:35.366Z,99480.97
2023-04-16T00:06:47.308Z,99481.81
2023-04-16T00:06:59.361Z,99479.84
2023-04-16T00:07:11.425Z,99476.53
2023-04-16T00:07:23.341Z,99478.06
2023-04-16T00:07:35.331Z,99476.09
2023-04-16T00:07:47.289Z,99481.47
2023-04-16T00:07:59.215Z,99486.66
2023-04-16T00:08:11.210Z,99481.81
2023-04-16T00:08:26.381Z,99475.78
2023-04-16T00:08:38.424Z,99473.00
2023-04-16T00:08:51.589Z,99476.53
2023-04-16T00:09:03.590Z,99475.66
2023-04-16T00:09:15.705Z,99481.81
2023-04-16T00:09:27.653Z,99475.78
2023-04-16T00:09:39.552Z,99481.81
2023-04-16T00:09:51.530Z,99480.09
2023-04-16T00:10:03.677Z,99481.88
2023-04-16T00:10:15.992Z,99481.88
2023-04-16T00:10:27.925Z,99483.50
2023-04-16T00:10:39.960Z,99478.41
2023-04-16T00:10:53.461Z,99487.06
2023-04-16T00:11:05.576Z,99480.44
2023-04-16T00:11:18.065Z,99482.03
2023-04-16T00:11:30.042Z,99482.81
2023-04-16T00:11:41.980Z,99481.97
2023-04-16T00:11:53.977Z,99485.38
2023-04-16T00:12:06.568Z,99483.59
2023-04-16T00:12:18.567Z,99487.16
2023-04-16T00:12:30.527Z,99480.19
2023-04-16T00:12:42.531Z,99484.41
2023-04-16T00:12:54.524Z,99481.81
2023-04-16T00:13:06.444Z,99488.69
2023-04-16T00:13:18.559Z,99485.13
2023-04-16T00:13:30.589Z,99480.03
2023-04-16T00:13:42.590Z,99480.03
2023-04-16T00:13:54.460Z,99479.97
2023-04-16T00:14:06.401Z,99475.66
2023-04-16T00:14:18.654Z,99487.78
2023-04-16T00:14:30.644Z,99481.81
2023-04-16T00:14:43.431Z,99486.81
2023-04-16T00:14:55.393Z,99483.41
2023-04-16T00:15:07.781Z,99482.44
2023-04-16T00:15:19.714Z,99479.84
2023-04-16T00:15:31.674Z,99480.03
2023-04-16T00:15:43.593Z,99480.88
2023-04-16T00:15:55.558Z,99481.81
2023-04-16T00:16:07.821Z,99480.03
2023-04-16T00:16:19.783Z,99480.97
2023-04-16T00:16:31.894Z,99481.72
2023-04-16T00:16:43.952Z,99476.47
2023-04-16T00:16:55.980Z,99475.66
2023-04-16T00:17:08.030Z,99487.75
2023-04-16T00:17:20.271Z,99483.59
2023-04-16T00:17:32.271Z,99482.69
2023-04-16T00:17:44.201Z,99484.59
2023-04-16T00:17:56.268Z,99482.78
2023-04-16T00:18:08.250Z,99480.44
2023-04-16T00:18:21.147Z,99487.50
2023-04-16T00:18:33.110Z,99483.25
2023-04-16T00:18:45.453Z,99484.78
2023-04-16T00:18:57.362Z,99483.75
2023-04-16T00:19:09.794Z,99487.06
2023-04-16T00:19:22.213Z,99485.25
2023-04-16T00:19:34.092Z,99481.72
2023-04-16T00:19:45.983Z,99487.72
2023-04-16T00:19:57.857Z,99486.81
2023-04-16T00:20:10.394Z,99482.63
2023-04-16T00:20:22.327Z,99479.53
2023-04-16T00:20:34.268Z,99485.63
2023-04-16T00:20:46.387Z,99484.75
2023-04-16T00:20:59.448Z,99478.94
2023-04-16T00:21:11.427Z,99483.25
2023-04-16T00:21:23.348Z,99482.50
2023-04-16T00:21:35.506Z,99480.81
2023-04-16T00:21:47.486Z,99484.22
2023-04-16T00:21:59.503Z,99480.59
2023-04-16T00:22:11.401Z,99485.91
2023-04-16T00:22:23.339Z,99491.09
2023-04-16T00:22:35.311Z,99483.16
2023-04-16T00:22:47.203Z,99487.31
2023-04-16T00:22:59.161Z,99485.63
2023-04-16T00:23:11.076Z,99484.09
2023-04-16T00:23:25.813Z,99480.53
2023-04-16T00:23:38.062Z,99482.16
2023-04-16T00:23:50.080Z,99488.94
2023-04-16T00:24:02.020Z,99487.31
2023-04-16T00:24:14.012Z,99480.25
2023-04-16T00:24:25.935Z,99490.69
2023-04-16T00:24:37.873Z,99482.81
2023-04-16T00:24:49.776Z,99477.59
2023-04-16T00:25:01.700Z,99480.91
2023-04-16T00:25:14.156Z,99484.25
2023-04-16T00:25:26.112Z,99483.34
2023-04-16T00:25:38.145Z,99482.63
2023-04-16T00:25:50.194Z,99486.88
2023-04-16T00:26:02.136Z,99487.78
2023-04-16T00:26:14.063Z,99488.69
2023-04-16T00:26:26.001Z,99482.59
2023-04-16T00:26:37.898Z,99486.81
2023-04-16T00:26:49.859Z,99491.94
2023-04-16T00:27:02.032Z,99488.44
2023-04-16T00:27:13.939Z,99485.81
2023-04-16T00:27:26.191Z,99485.97
2023-04-16T00:27:38.092Z,99477.59
2023-04-16T00:27:49.975Z,99483.66
2023-04-16T00:28:01.968Z,99483.03
2023-04-16T00:28:13.959Z,99484.13
2023-04-16T00:28:31.780Z,99485.72
2023-04-16T00:28:43.700Z,99489.00
2023-04-16T00:28:55.638Z,99478.75
2023-04-16T00:29:07.900Z,99485.63
2023-04-16T00:29:20.284Z,99487.53
2023-04-16T00:29:33.656Z,99486.47
2023-04-16T00:29:45.761Z,99478.59
2023-04-16T00:29:57.664Z,99485.44
2023-04-16T00:30:09.812Z,99485.63
2023-04-16T00:30:22.672Z,99477.94
2023-04-16T00:30:35.309Z,99472.81
2023-04-16T00:30:47.329Z,99480.44
2023-04-16T00:31:01.579Z,99480.44
2023-04-16T00:31:13.596Z,99474.59
2023-04-16T00:31:32.403Z,99480.38
2023-04-16T00:31:44.388Z,99480.19
2023-04-16T00:31:56.601Z,99478.41
2023-04-16T00:32:08.481Z,99484.31
2023-04-16T00:32:20.385Z,99479.59
2023-04-16T00:32:32.418Z,99480.09
2023-04-16T00:32:44.357Z,99480.81
2023-04-16T00:32:56.349Z,99475.50
2023-04-16T00:33:08.380Z,99481.59
2023-04-16T00:33:20.452Z,99478.25
2023-04-16T00:33:32.403Z,99484.44
2023-04-16T00:33:44.353Z,99480.09
2023-04-16T00:33:56.785Z,99481.72
2023-04-16T00:34:08.857Z,99480.03
2023-04-16T00:34:20.877Z,99484.41
2023-04-16T00:34:32.998Z,99481.81
2023-04-16T00:34:44.938Z,99480.03
2023-04-16T00:34:56.804Z,99483.38
2023-04-16T00:35:08.884Z,99478.25
2023-04-16T00:35:20.947Z,99481.81
2023-04-16T00:35:32.911Z,99480.97
2023-04-16T00:35:48.164Z,99483.41
2023-04-16T00:36:00.155Z,99482.63
2023-04-16T00:36:12.080Z,99490.38
2023-04-16T00:36:25.703Z,99484.47
2023-04-16T00:36:37.607Z,99478.41
2023-04-16T00:36:49.485Z,99487.94
2023-04-16T00:37:01.430Z,99481.88
2023-04-16T00:37:13.395Z,99480.09
2023-04-16T00:37:25.375Z,99480.09
2023-04-16T00:37:37.313Z,99482.13
2023-04-16T00:37:49.251Z,99482.16
2023-04-16T00:38:01.227Z,99480.25
2023-04-16T00:38:13.759Z,99484.41
2023-04-16T00:38:29.892Z,99483.41
2023-04-16T00:38:41.778Z,99487.75
2023-04-16T00:38:54.572Z,99493.63
2023-04-16T00:39:06.628Z,99483.66
2023-04-16T00:39:18.580Z,99490.63
2023-04-16T00:39:30.595Z,99491.41
2023-04-16T00:39:42.509Z,99488.84
2023-04-16T00:39:54.451Z,99483.59
2023-04-16T00:40:07.360Z,99484.38
2023-04-16T00:40:19.336Z,99488.75
2023-04-16T00:40:31.325Z,99485.28
2023-04-16T00:40:43.322Z,99490.38
2023-04-16T00:40:58.036Z,99485.22
2023-04-16T00:41:09.925Z,99488.53
2023-04-16T00:41:23.018Z,99492.22
2023-04-16T00:41:34.987Z,99488.69
2023-04-16T00:41:47.082Z,99480.91
2023-04-16T00:41:59.042Z,99486.81
2023-04-16T00:42:11.298Z,99484.09
2023-04-16T00:42:23.188Z,99487.59
2023-04-16T00:42:36.953Z,99485.22
2023-04-16T00:42:48.903Z,99487.00
2023-04-16T00:43:00.838Z,99488.78
2023-04-16T00:43:21.726Z,99493.84
2023-04-16T00:43:33.701Z,99484.44
2023-04-16T00:43:46.058Z,99486.00
2023-04-16T00:43:58.005Z,99486.09
2023-04-16T00:44:10.074Z,99484.44
2023-04-16T00:44:21.996Z,99490.72
2023-04-16T00:44:36.011Z,99487.97
2023-04-16T00:44:47.983Z,99483.16
2023-04-16T00:44:59.860Z,99487.19
2023-04-16T00:45:11.924Z,99481.31
2023-04-16T00:45:23.849Z,99497.59
2023-04-16T00:45:36.524Z,99488.84
2023-04-16T00:45:48.761Z,99491.41
2023-04-16T00:46:01.055Z,99479.25
2023-04-16T00:46:13.083Z,99484.22
2023-04-16T00:46:25.906Z,99489.38
2023-04-16T00:46:38.554Z,99486.81
2023-04-16T00:46:50.880Z,99490.38
2023-04-16T00:47:03.375Z,99480.16
2023-04-16T00:47:15.950Z,99483.41
2023-04-16T00:47:28.028Z,99488.53
2023-04-16T00:47:40.336Z,99485.00
2023-04-16T00:47:52.429Z,99485.81
2023-04-16T00:48:05.216Z,99488.41
2023-04-16T00:48:17.479Z,99490.88
2023-04-16T00:48:31.734Z,99490.16
2023-04-16T00:48:44.686Z,99493.72
2023-04-16T00:48:57.402Z,99492.91
2023-04-16T00:49:09.909Z,99490.56
2023-04-16T00:49:22.114Z,99488.09
2023-04-16T00:49:34.595Z,99487.34
2023-04-16T00:49:46.716Z,99488.97
2023-04-16T00:49:58.795Z,99480.53
2023-04-16T00:50:11.490Z,99487.34
2023-04-16T00:50:23.780Z,99486.41
2023-04-16T00:50:35.698Z,99478.59
2023-04-16T00:50:48.531Z,99488.94
2023-04-16T00:51:01.668Z,99490.56
2023-04-16T00:51:13.704Z,99491.25
2023-04-16T00:51:27.004Z,99486.09
2023-04-16T00:51:38.998Z,99489.53
2023-04-16T00:51:51.079Z,99486.88
2023-04-16T00:52:03.313Z,99486.88
2023-04-16T00:52:15.342Z,99495.50
2023-04-16T00:52:28.641Z,99486.88
2023-04-16T00:52:40.745Z,99493.84
2023-04-16T00:52:56.765Z,99488.59
2023-04-16T00:53:08.874Z,99491.50
2023-04-16T00:53:21.006Z,99489.88
2023-04-16T00:53:34.276Z,99484.81
2023-04-16T00:53:46.633Z,99485.56
2023-04-16T00:53:58.588Z,99492.41
2023-04-16T00:54:10.718Z,99486.22
2023-04-16T00:54:23.108Z,99485.22
2023-04-16T00:54:35.808Z,99490.31
2023-04-16T00:54:48.458Z,99482.63
2023-04-16T00:55:00.886Z,99481.50
2023-04-16T00:55:13.432Z,99490.94
2023-04-16T00:55:25.522Z,99484.78
2023-04-16T00:55:37.512Z,99493.31
2023-04-16T00:55:49.646Z,99493.38
2023-04-16T00:56:06.573Z,99482.16
2023-04-16T00:56:19.039Z,99487.16
2023-04-16T00:56:31.926Z,99491.38
2023-04-16T00:56:44.514Z,99484.41
2023-04-16T00:56:56.747Z,99487.84
2023-04-16T00:57:09.924Z,99493.31
2023-04-16T00:57:23.797Z,99489.88
2023-04-16T00:57:35.702Z,99493.38
2023-04-16T00:57:47.664Z,99487.50
2023-04-16T00:57:59.556Z,99486.47
2023-04-16T00:58:11.751Z,99489.91
2023-04-16T00:58:23.910Z,99489.78
2023-04-16T00:58:36.034Z,99492.34
2023-04-16T00:58:48.121Z,99493.44
2023-04-16T00:59:00.264Z,99486.69
2023-04-16T00:59:12.335Z,99487.81
2023-04-16T00:59:24.273Z,99489.47
2023-04-16T00:59:36.511Z,99489.34
2023-04-16T00:59:48.451Z,99494.53
2023-04-16T01:00:00.510Z,99496.28
2023-04-16T01:00:13.141Z,99489.41
2023-04-16T01:00:26.231Z,99485.41
2023-04-16T01:00:38.180Z,99483.44
2023-04-16T01:00:50.725Z,99484.94
2023-04-16T01:01:02.708Z,99487.41
2023-04-16T01:01:14.723Z,99489.28
2023-04-16T01:01:26.738Z,99481.50
2023-04-16T01:01:38.678Z,99481.53
2023-04-16T01:01:50.807Z,99487.53
2023-04-16T01:02:02.941Z,99491.13
2023-04-16T01:02:16.068Z,99484.94
2023-04-16T01:02:28.251Z,99484.91
2023-04-16T01:02:40.353Z,99486.69
2023-04-16T01:02:54.210Z,99489.09
2023-04-16T01:03:06.436Z,99484.63
2023-04-16T01:03:18.428Z,99494.03
2023-04-16T01:03:39.514Z,99487.78
2023-04-16T01:03:51.682Z,99487.00
2023-04-16T01:04:04.221Z,99487.00
2023-04-16T01:04:16.326Z,99487.88
2023-04-16T01:04:30.831Z,99491.34
2023-04-16T01:04:42.979Z,99489.66
2023-04-16T01:04:55.322Z,99486.16
2023-04-16T01:05:07.431Z,99485.38
2023-04-16T01:05:19.938Z,99485.34
2023-04-16T01:05:31.918Z,99477.47
2023-04-16T01:05:45.925Z,99491.44
2023-04-16T01:05:57.814Z,99490.09
2023-04-16T01:06:10.731Z,99483.16
2023-04-16T01:06:22.755Z,99487.53
2023-04-16T01:06:34.764Z,99483.94
2023-04-16T01:06:46.646Z,99484.56
2023-04-16T01:06:58.565Z,99481.81
2023-04-16T01:07:10.547Z,99480.09
2023-04-16T01:07:22.436Z,99482.63
2023-04-16T01:07:34.385Z,99486.81
2023-04-16T01:07:46.303Z,99487.78
2023-04-16T01:08:00.709Z,99481.88
2023-04-16T01:08:21.415Z,99488.00
2023-04-16T01:08:33.597Z,99476.78
2023-04-16T01:08:46.827Z,99480.91
2023-04-16T01:08:58.734Z,99481.72
2023-04-16T01:09:13.632Z,99479.09
2023-04-16T01:09:25.829Z,99487.94
2023-04-16T01:09:37.801Z,99480.44
2023-04-16T01:09:49.745Z,99485.53
2023-04-16T01:10:02.236Z,99479.63
2023-04-16T01:10:14.188Z,99481.41
2023-04-16T01:10:26.119Z,99480.66
2023-04-16T01:10:38.026Z,99474.53
2023-04-16T01:10:49.952Z,99479.03
2023-04-16T01:11:02.295Z,99483.25
2023-04-16T01:11:15.085Z,99482.22
2023-04-16T01:11:27.243Z,99480.53
2023-04-16T01:11:39.726Z,99483.94
2023-04-16T01:11:51.751Z,99484.69
2023-04-16T01:12:03.680Z,99487.41
2023-04-16T01:12:15.597Z,99487.53
2023-04-16T01:12:27.593Z,99479.63
2023-04-16T01:12:39.486Z,99486.41
2023-04-16T01:12:51.429Z,99478.88
2023-04-16T01:13:03.354Z,99479.72
2023-04-16T01:13:15.314Z,99487.41
2023-04-16T01:13:27.321Z,99482.22
2023-04-16T01:13:39.564Z,99485.72
2023-04-16T01:13:51.826Z,99480.44
2023-04-16T01:14:04.022Z,99488.81
2023-04-16T01:14:15.953Z,99483.50
2023-04-16T01:14:27.916Z,99488.78
2023-04-16T01:14:39.860Z,99482.59
2023-04-16T01:14:51.769Z,99485.88
2023-04-16T01:15:04.070Z,99485.78
2023-04-16T01:15:16.029Z,99484.88
2023-04-16T01:15:28.557Z,99486.59
2023-04-16T01:15:40.663Z,99486.75
2023-04-16T01:15:52.611Z,99485.88
2023-04-16T01:16:06.925Z,99490.25
2023-04-16T01:16:19.002Z,99490.22
2023-04-16T01:16:32.414Z,99488.53
2023-04-16T01:16:44.356Z,99487.72
2023-04-16T01:16:56.291Z,99495.50
2023-04-16T01:17:08.252Z,99485.06
2023-04-16T01:17:20.402Z,99491.84
2023-04-16T01:17:32.327Z,99485.78
2023-04-16T01:17:47.266Z,99490.16
2023-04-16T01:17:59.275Z,99492.75
2023-04-16T01:18:21.597Z,99489.34
2023-04-16T01:18:34.349Z,99492.91
2023-04-16T01:18:46.355Z,99491.22
2023-04-16T01:18:58.359Z,99500.75
2023-04-16T01:19:10.731Z,99495.50
2023-04-16T01:19:22.868Z,99490.38
2023-04-16T01:19:38.415Z,99487.00
2023-04-16T01:19:50.647Z,99499.03
2023-04-16T01:20:02.650Z,99492.16
2023-04-16T01:20:15.020Z,99495.63
2023-04-16T01:20:26.988Z,99494.13
2023-04-16T01:20:38.924Z,99488.84
2023-04-16T01:20:51.231Z,99487.78
2023-04-16T01:21:04.131Z,99492.00
2023-04-16T01:21:16.179Z,99486.75
2023-04-16T01:21:28.205Z,99494.47
2023-04-16T01:21:40.330Z,99492.78
2023-04-16T01:21:52.353Z,99492.75
2023-04-16T01:22:05.631Z,99492.78
2023-04-16T01:22:17.575Z,99492.03
2023-04-16T01:22:29.666Z,99498.91
2023-04-16T01:22:41.623Z,99491.13
2023-04-16T01:22:53.591Z,99487.50
2023-04-16T01:23:05.476Z,99491.69
2023-04-16T01:23:21.311Z,99488.47
2023-04-16T01:23:33.337Z,99488.38
2023-04-16T01:23:45.422Z,99491.75
2023-04-16T01:24:03.037Z,99491.94
2023-04-16T01:24:14.927Z,99489.34
2023-04-16T01:24:26.822Z,99493.66
2023-04-16T01:24:39.607Z,99490.22
2023-04-16T01:24:51.581Z,99489.41
2023-04-16T01:25:03.942Z,99489.44
2023-04-16T01:25:16.350Z,99492.91
2023-04-16T01:25:28.282Z,99490.31
2023-04-16T01:25:40.329Z,99498.13
2023-04-16T01:25:52.285Z,99489.47
2023-04-16T01:26:04.215Z,99493.28
2023-04-16T01:26:16.275Z,99486.41
2023-04-16T01:26:28.200Z,99490.63
2023-04-16T01:26:40.258Z,99495.81
2023-04-16T01:26:52.195Z,99496.69
2023-04-16T01:27:04.200Z,99499.38
2023-04-16T01:27:16.144Z,99494.13
2023-04-16T01:27:28.144Z,99493.34
2023-04-16T01:27:40.080Z,99490.63
2023-04-16T01:27:54.751Z,99493.97
2023-04-16T01:28:07.668Z,99497.22
2023-04-16T01:28:19.727Z,99491.25
2023-04-16T01:28:31.636Z,99490.31
2023-04-16T01:28:43.631Z,99495.50
2023-04-16T01:28:55.631Z,99492.16
2023-04-16T01:29:07.695Z,99497.25
2023-04-16T01:29:19.863Z,99492.06
2023-04-16T01:29:31.766Z,99494.75
2023-04-16T01:29:43.698Z,99500.72
2023-04-16T01:29:56.264Z,99497.19
2023-04-16T01:30:08.631Z,99494.59
2023-04-16T01:30:20.715Z,99498.97
2023-04-16T01:30:32.692Z,99495.50
2023-04-16T01:30:44.683Z,99499.81
2023-04-16T01:30:56.732Z,99490.31
2023-04-16T01:31:08.660Z,99497.19
2023-04-16T01:31:20.711Z,99496.41
2023-04-16T01:31:32.780Z,99497.25
2023-04-16T01:31:46.635Z,99499.84
2023-04-16T01:31:58.628Z,99496.50
2023-04-16T01:32:10.553Z,99493.06
2023-04-16T01:32:22.524Z,99499.03
2023-04-16T01:32:34.554Z,99497.25
2023-04-16T01:32:46.543Z,99496.50
2023-04-16T01:32:58.652Z,99496.41
2023-04-16T01:33:11.636Z,99492.97
2023-04-16T01:33:23.584Z,99496.38
2023-04-16T01:33:35.692Z,99497.16
2023-04-16T01:33:47.640Z,99500.50
2023-04-16T01:33:59.556Z,99498.81
2023-04-16T01:34:11.488Z,99497.97
2023-04-16T01:34:23.443Z,99498.00
2023-04-16T01:34:35.335Z,99493.66
2023-04-16T01:34:47.315Z,99502.41
2023-04-16T01:34:59.259Z,99501.53
2023-04-16T01:35:11.152Z,99493.72
2023-04-16T01:35:23.705Z,99498.84
2023-04-16T01:35:35.837Z,99498.00
2023-04-16T01:35:47.806Z,99496.22
2023-04-16T01:35:59.733Z,99497.19
2023-04-16T01:36:11.689Z,99495.41
2023-04-16T01:36:23.615Z,99498.81
2023-04-16T01:36:35.586Z,99497.03
2023-04-16T01:36:47.556Z,99494.53
2023-04-16T01:36:59.511Z,99497.13
2023-04-16T01:37:12.313Z,99502.31
2023-04-16T01:37:24.256Z,99499.59
2023-04-16T01:37:36.208Z,99504.97
2023-04-16T01:37:50.060Z,99495.50
2023-04-16T01:38:03.002Z,99498.13
2023-04-16T01:38:15.009Z,99498.91
2023-04-16T01:38:26.956Z,99498.81
2023-04-16T01:38:38.869Z,99497.97
2023-04-16T01:38:50.811Z,99501.59
2023-04-16T01:39:04.477Z,99494.91
2023-04-16T01:39:17.089Z,99504.31
2023-04-16T01:39:29.033Z,99500.69
2023-04-16T01:39:41.074Z,99498.91
2023-04-16T01:39:53.083Z,99501.50
2023-04-16T01:40:05.493Z,99494.47
2023-04-16T01:40:17.991Z,99501.31
2023-04-16T01:40:29.915Z,99499.44
2023-04-16T01:40:41.891Z,99494.22
2023-04-16T01:40:57.912Z,99500.25
2023-04-16T01:41:09.857Z,99502.19
2023-04-16T01:41:21.910Z,99502.31
2023-04-16T01:41:33.857Z,99505.88
2023-04-16T01:41:45.773Z,99500.59
2023-04-16T01:41:57.724Z,99503.97
2023-04-16T01:42:09.663Z,99501.38
2023-04-16T01:42:21.603Z,99510.00
2023-04-16T01:42:33.544Z,99493.72
2023-04-16T01:42:45.589Z,99499.63
2023-04-16T01:42:57.522Z,99498.81
2023-04-16T01:43:09.456Z,99510.78
2023-04-16T01:43:21.362Z,99509.03
2023-04-16T01:43:33.292Z,99499.63
2023-04-16T01:43:45.398Z,99502.31
2023-04-16T01:43:57.488Z,99496.03
2023-04-16T01:44:11.976Z,99500.25
2023-04-16T01:44:23.936Z,99503.75
2023-04-16T01:44:35.877Z,99508.03
2023-04-16T01:44:47.770Z,99504.88
2023-04-16T01:44:59.738Z,99502.22
2023-04-16T01:45:12.084Z,99503.91
2023-04-16T01:45:23.968Z,99500.41
2023-04-16T01:45:35.966Z,99510.06
2023-04-16T01:45:48.040Z,99506.72
2023-04-16T01:46:14.198Z,99507.78
2023-04-16T01:46:32.163Z,99506.00
2023-04-16T01:46:45.040Z,99504.38
2023-04-16T01:46:57.045Z,99509.50
2023-04-16T01:47:09.131Z,99511.31
2023-04-16T01:47:21.535Z,99500.81
2023-04-16T01:47:33.567Z,99510.97
2023-04-16T01:47:45.631Z,99510.94
2023-04-16T01:47:57.728Z,99503.97
2023-04-16T01:48:09.680Z,99507.38
2023-04-16T01:48:21.796Z,99503.91
2023-04-16T01:48:33.745Z,99505.91
2023-04-16T01:48:46.190Z,99507.63
2023-04-16T01:48:58.365Z,99507.69
2023-04-16T01:49:16.300Z,99504.97
2023-04-16T01:49:29.128Z,99510.88
2023-04-16T01:49:41.186Z,99505.69
2023-04-16T01:49:53.613Z,99511.69
2023-04-16T01:50:06.356Z,99506.44
2023-04-16T01:50:19.682Z,99512.50
2023-04-16T01:50:31.856Z,99506.38
2023-04-16T01:50:43.845Z,99505.59
2023-04-16T01:50:55.840Z,99507.31
2023-04-16T01:51:07.805Z,99507.22
2023-04-16T01:51:19.721Z,99505.44
2023-04-16T01:51:32.252Z,99508.94
2023-04-16T01:51:44.158Z,99509.66
2023-04-16T01:51:56.095Z,99507.97
2023-04-16T01:52:08.590Z,99510.53
2023-04-16T01:52:21.135Z,99505.34
2023-04-16T01:52:33.065Z,99511.38
2023-04-16T01:52:45.146Z,99506.97
2023-04-16T01:52:57.113Z,99503.47
2023-04-16T01:53:09.665Z,99498.28
2023-04-16T01:53:21.573Z,99506.78
2023-04-16T01:53:35.748Z,99500.66
2023-04-16T01:53:49.838Z,99509.34
2023-04-16T01:54:01.941Z,99500.88
2023-04-16T01:54:19.998Z,99501.69
2023-04-16T01:54:32.120Z,99503.47
2023-04-16T01:54:44.077Z,99503.41
2023-04-16T01:54:56.392Z,99503.41
2023-04-16T01:55:08.489Z,99505.19
2023-04-16T01:55:20.612Z,99511.16
2023-04-16T01:55:34.071Z,99504.31
2023-04-16T01:55:46.222Z,99503.47
2023-04-16T01:55:58.173Z,99510.25
2023-04-16T01:56:10.137Z,99506.88
2023-04-16T01:56:22.052Z,99506.00
2023-04-16T01:56:34.018Z,99505.09
2023-04-16T01:56:46.121Z,99511.03
2023-04-16T01:56:58.265Z,99505.03
2023-04-16T01:57:10.218Z,99505.00
2023-04-16T01:57:22.101Z,99510.16
2023-04-16T01:57:34.043Z,99511.81
2023-04-16T01:57:46.037Z,99500.50
2023-04-16T01:57:57.988Z,99507.47
2023-04-16T01:58:10.956Z,99504.00
2023-04-16T01:58:22.905Z,99512.75
2023-04-16T01:58:35.667Z,99509.25
2023-04-16T01:58:47.643Z,99510.53
2023-04-16T01:58:59.590Z,99506.88
2023-04-16T01:59:12.305Z,99506.78
2023-04-16T01:59:24.255Z,99505.25
2023-04-16T01:59:36.208Z,99510.38
2023-04-16T01:59:48.160Z,99501.59
2023-04-16T02:00:00.156Z,99503.28
2023-04-16T02:00:12.122Z,99511.13
2023-04-16T02:00:24.042Z,99513.84
2023-04-16T02:00:35.976Z,99504.25
2023-04-16T02:00:47.969Z,99503.28
2023-04-16T02:01:00.039Z,99506.69
2023-04-16T02:01:12.354Z,99512.44
2023-04-16T02:01:24.515Z,99509.00
2023-04-16T02:01:36.624Z,99511.53
2023-04-16T02:01:48.646Z,99506.53
2023-04-16T02:02:11.636Z,99515.91
2023-04-16T02:02:28.217Z,99514.00
2023-04-16T02:02:40.747Z,99513.25
2023-04-16T02:02:53.078Z,99513.47
2023-04-16T02:03:05.287Z,99512.56
2023-04-16T02:03:18.469Z,99511.63
2023-04-16T02:03:31.293Z,99503.75
2023-04-16T02:03:43.500Z,99512.25
2023-04-16T02:03:56.750Z,99515.66
2023-04-16T02:04:09.466Z,99512.16
2023-04-16T02:04:21.550Z,99513.84
2023-04-16T02:04:33.577Z,99516.44
2023-04-16T02:04:46.525Z,99506.88
2023-04-16T02:04:58.419Z,99507.81
2023-04-16T02:05:10.358Z,99510.78
2023-04-16T02:05:22.310Z,99517.69
2023-04-16T02:05:34.297Z,99514.34
2023-04-16T02:05:47.300Z,99511.69
2023-04-16T02:05:59.365Z,99513.34
2023-04-16T02:06:11.307Z,99515.03
2023-04-16T02:06:23.248Z,99509.28
2023-04-16T02:06:35.309Z,99509.09
2023-04-16T02:06:47.303Z,99513.16
2023-04-16T02:06:59.243Z,99510.53
2023-04-16T02:07:12.157Z,99510.78
2023-04-16T02:07:24.750Z,99511.44
2023-04-16T02:07:36.758Z,99517.50
2023-04-16T02:07:48.715Z,99511.38
2023-04-16T02:08:00.718Z,99508.75
2023-04-16T02:08:12.677Z,99518.22
2023-04-16T02:08:24.587Z,99510.41
2023-04-16T02:08:36.554Z,99508.88
2023-04-16T02:08:48.493Z,99510.53
2023-04-16T02:09:00.382Z,99514.78
2023-04-16T02:09:12.320Z,99512.16
2023-04-16T02:09:24.497Z,99518.94
2023-04-16T02:09:40.529Z,99512.06
2023-04-16T02:09:52.500Z,99512.94
2023-04-16T02:10:05.347Z,99513.16
2023-04-16T02:10:17.266Z,99511.28
2023-04-16T02:10:29.199Z,99518.34
2023-04-16T02:10:41.139Z,99509.50
2023-04-16T02:10:53.430Z,99518.09
2023-04-16T02:11:05.486Z,99511.13
2023-04-16T02:11:17.415Z,99506.88
2023-04-16T02:11:29.358Z,99512.31
2023-04-16T02:11:41.255Z,99520.00
2023-04-16T02:11:53.171Z,99511.25
2023-04-16T02:12:05.366Z,99512.16
2023-04-16T02:12:17.575Z,99513.00
2023-04-16T02:12:29.759Z,99509.56
2023-04-16T02:12:41.779Z,99517.56
2023-04-16T02:12:53.739Z,99518.50
2023-04-16T02:13:05.674Z,99516.94
2023-04-16T02:13:17.726Z,99509.16
2023-04-16T02:13:29.646Z,99513.50
2023-04-16T02:13:41.521Z,99514.34
2023-04-16T02:13:53.436Z,99503.97
2023-04-16T02:14:05.356Z,99514.44
2023-04-16T02:14:17.308Z,99512.66
2023-04-16T02:14:30.187Z,99503.97
2023-04-16T02:14:42.137Z,99516.06
2023-04-16T02:14:54.135Z,99514.34
2023-04-16T02:15:06.650Z,99515.97
2023-04-16T02:15:18.694Z,99513.34
2023-04-16T02:15:30.913Z,99507.56
2023-04-16T02:15:47.154Z,99517.94
2023-04-16T02:15:59.224Z,99510.94
2023-04-16T02:16:11.329Z,99504.88
2023-04-16T02:16:23.931Z,99507.41
2023-04-16T02:16:36.043Z,99510.94
2023-04-16T02:16:48.157Z,99512.72
2023-04-16T02:17:00.711Z,99512.72
2023-04-16T02:17:12.682Z,99510.94
2023-04-16T02:17:24.585Z,99515.38
2023-04-16T02:17:36.493Z,99514.44
2023-04-16T02:17:50.894Z,99506.88
2023-04-16T02:18:02.983Z,99509.50
2023-04-16T02:18:15.432Z,99502.44
2023-04-16T02:18:27.575Z,99511.13
2023-04-16T02:18:39.482Z,99510.22
2023-04-16T02:18:51.598Z,99512.81
2023-04-16T02:19:04.491Z,99509.28
2023-04-16T02:19:16.652Z,99512.59
2023-04-16T02:19:28.585Z,99515.97
2023-04-16T02:19:40.509Z,99512.41
2023-04-16T02:19:52.838Z,99508.19
2023-04-16T02:20:07.929Z,99510.91
2023-04-16T02:20:19.886Z,99519.69
2023-04-16T02:20:31.891Z,99511.13
2023-04-16T02:20:45.621Z,99511.94
2023-04-16T02:20:59.945Z,99514.47
2023-04-16T02:21:11.837Z,99514.47
2023-04-16T02:21:23.830Z,99514.44
2023-04-16T02:21:35.930Z,99508.34
2023-04-16T02:21:48.342Z,99508.47
2023-04-16T02:22:01.685Z,99512.81
2023-04-16T02:22:13.916Z,99512.72
2023-04-16T02:22:25.871Z,99512.66
2023-04-16T02:22:37.825Z,99511.75
2023-04-16T02:22:49.840Z,99514.53
2023-04-16T02:23:01.756Z,99515.47
2023-04-16T02:23:15.026Z,99512.00
2023-04-16T02:23:26.937Z,99511.28
2023-04-16T02:23:41.034Z,99510.59
2023-04-16T02:23:52.998Z,99518.25
2023-04-16T02:24:05.117Z,99510.34
2023-04-16T02:24:17.025Z,99517.91
2023-04-16T02:24:29.319Z,99509.28
2023-04-16T02:24:41.338Z,99513.66
2023-04-16T02:24:53.344Z,99507.63
2023-04-16T02:25:05.977Z,99513.69
2023-04-16T02:25:18.130Z,99507.72
2023-04-16T02:25:30.238Z,99511.06
2023-04-16T02:25:43.357Z,99513.50
2023-04-16T02:25:55.436Z,99515.16